createdAt,value
2022-12-09T00:02:06.324Z,5.80
2022-12-09T00:04:34.072Z,5.70
2022-12-09T00:07:01.737Z,5.70
2022-12-09T00:09:28.787Z,5.80
2022-12-09T00:11:56.213Z,5.80
2022-12-09T00:14:23.254Z,5.80
2022-12-09T00:16:50.444Z,5.80
2022-12-09T00:19:19.664Z,5.80
2022-12-09T00:21:46.906Z,5.80
2022-12-09T00:24:14.825Z,5.80
2022-12-09T00:26:43.017Z,5.80
2022-12-09T00:29:11.415Z,5.80
2022-12-09T00:31:44.357Z,5.70
2022-12-09T00:34:14.158Z,5.70
2022-12-09T00:36:41.548Z,5.80
2022-12-09T00:39:10.039Z,5.70
2022-12-09T00:41:37.535Z,5.70
2022-12-09T00:44:05.064Z,5.80
2022-12-09T00:46:32.523Z,5.70
2022-12-09T00:48:59.719Z,5.70
2022-12-09T00:51:27.125Z,5.70
2022-12-09T00:53:55.926Z,5.70
2022-12-09T00:56:28.855Z,5.70
2022-12-09T00:58:57.421Z,5.70
2022-12-09T01:01:26.662Z,5.70
2022-12-09T01:03:54.388Z,5.60
2022-12-09T01:06:23.938Z,5.60
2022-12-09T01:08:51.627Z,5.60
2022-12-09T01:11:21.627Z,5.60
2022-12-09T01:13:49.955Z,5.60
2022-12-09T01:16:24.984Z,5.70
2022-12-09T01:18:54.166Z,5.70
2022-12-09T01:21:21.490Z,5.70
2022-12-09T01:23:50.007Z,5.70
2022-12-09T01:26:20.167Z,5.70
2022-12-09T01:28:55.485Z,5.70
2022-12-09T01:31:25.214Z,5.70
2022-12-09T01:33:54.890Z,5.60
2022-12-09T01:36:25.529Z,5.70
2022-12-09T01:38:53.248Z,5.70
2022-12-09T01:41:22.159Z,5.70
2022-12-09T01:44:17.024Z,5.70
2022-12-09T01:46:45.434Z,5.70
2022-12-09T01:49:17.714Z,5.70
2022-12-09T01:51:51.986Z,5.70
2022-12-09T01:54:19.290Z,5.70
2022-12-09T01:56:49.549Z,5.70
2022-12-09T01:59:19.797Z,5.60
2022-12-09T02:01:57.476Z,5.70
2022-12-09T02:04:26.316Z,5.70
2022-12-09T02:09:39.612Z,5.70
2022-12-09T02:12:35.905Z,5.80
2022-12-09T02:15:11.153Z,5.70
2022-12-09T02:18:01.825Z,5.70
2022-12-09T02:20:57.214Z,5.70
2022-12-09T02:23:53.598Z,5.80
2022-12-09T02:26:39.341Z,5.80
2022-12-09T02:29:22.548Z,5.80
2022-12-09T02:32:16.347Z,5.80
2022-12-09T02:34:53.642Z,5.80
2022-12-09T02:37:27.801Z,5.80
2022-12-09T02:40:06.751Z,5.80
2022-12-09T02:42:40.011Z,5.80
2022-12-09T02:45:11.072Z,5.70
2022-12-09T02:47:47.484Z,5.70
2022-12-09T02:50:19.113Z,5.70
2022-12-09T02:52:47.862Z,5.70
2022-12-09T02:55:19.472Z,5.70
2022-12-09T02:57:54.274Z,5.70
2022-12-09T03:00:22.254Z,5.70
2022-12-09T03:02:53.496Z,5.70
2022-12-09T03:05:36.093Z,5.70
2022-12-09T03:08:28.372Z,5.70
2022-12-09T03:11:03.075Z,5.70
2022-12-09T03:13:46.212Z,5.70
2022-12-09T03:16:47.092Z,5.70
2022-12-09T03:19:25.955Z,5.70
2022-12-09T03:21:57.310Z,5.70
2022-12-09T03:24:42.188Z,5.70
2022-12-09T03:27:15.738Z,5.70
2022-12-09T03:29:48.233Z,5.70
2022-12-09T03:32:18.193Z,5.70
2022-12-09T03:34:48.229Z,5.70
2022-12-09T03:37:18.366Z,5.70
2022-12-09T03:39:58.615Z,5.60
2022-12-09T03:42:37.741Z,5.70
2022-12-09T03:45:10.244Z,5.70
2022-12-09T03:47:38.288Z,5.80
2022-12-09T03:50:07.057Z,5.80
2022-12-09T03:53:00.364Z,5.90
2022-12-09T03:55:48.278Z,5.90
2022-12-09T03:58:17.353Z,5.80
2022-12-09T04:00:45.589Z,5.80
2022-12-09T04:03:14.039Z,5.80
2022-12-09T04:05:43.235Z,5.80
2022-12-09T04:08:10.953Z,5.70
2022-12-09T04:10:39.587Z,5.70
2022-12-09T04:13:06.828Z,5.70
2022-12-09T04:15:34.096Z,5.70
2022-12-09T04:18:01.549Z,5.80
2022-12-09T04:20:28.638Z,5.70
2022-12-09T04:22:56.545Z,5.70
2022-12-09T04:25:23.903Z,5.70
2022-12-09T04:27:52.220Z,5.80
2022-12-09T04:30:19.279Z,5.80
2022-12-09T04:32:46.745Z,5.80
2022-12-09T04:35:14.298Z,5.90
2022-12-09T04:37:41.484Z,5.90
2022-12-09T04:40:10.233Z,5.90
2022-12-09T04:42:37.743Z,5.90
2022-12-09T04:45:05.535Z,5.90
2022-12-09T04:47:34.428Z,5.90
2022-12-09T04:50:07.780Z,6.00
2022-12-09T04:52:42.568Z,6.00
2022-12-09T04:55:10.074Z,6.00
2022-12-09T04:57:42.306Z,5.90
2022-12-09T05:00:13.954Z,5.90
2022-12-09T05:02:41.730Z,5.80
2022-12-09T05:05:09.954Z,5.80
2022-12-09T05:07:37.508Z,5.80
2022-12-09T05:10:06.526Z,5.80
2022-12-09T05:12:34.456Z,5.80
2022-12-09T05:15:02.086Z,5.80
2022-12-09T05:17:29.680Z,5.80
2022-12-09T05:19:56.902Z,5.80
2022-12-09T05:22:24.487Z,5.80
2022-12-09T05:24:52.008Z,5.80
2022-12-09T05:27:19.225Z,5.80
2022-12-09T05:29:46.984Z,5.80
2022-12-09T05:32:14.596Z,5.80
2022-12-09T05:34:41.970Z,5.80
2022-12-09T05:37:13.515Z,5.80
2022-12-09T05:40:07.485Z,5.80
2022-12-09T05:42:40.943Z,5.80
2022-12-09T05:45:09.017Z,5.80
2022-12-09T05:47:37.395Z,5.80
2022-12-09T05:50:33.069Z,5.80
2022-12-09T05:53:03.273Z,5.80
2022-12-09T05:55:30.760Z,5.80
2022-12-09T05:57:58.575Z,5.80
2022-12-09T06:00:26.257Z,5.80
2022-12-09T06:02:53.493Z,5.80
2022-12-09T06:05:21.164Z,5.80
2022-12-09T06:07:49.027Z,5.80
2022-12-09T06:10:17.330Z,5.80
2022-12-09T06:12:44.825Z,5.80
2022-12-09T06:15:15.641Z,5.80
2022-12-09T06:17:46.043Z,5.80
2022-12-09T06:20:13.973Z,5.80
2022-12-09T06:22:53.528Z,5.80
2022-12-09T06:25:41.105Z,5.80
2022-12-09T06:28:14.104Z,5.90
2022-12-09T06:30:42.118Z,5.90
2022-12-09T06:33:36.931Z,5.90
2022-12-09T06:36:01.605Z,5.90
2022-12-09T06:38:29.504Z,5.90
2022-12-09T06:41:17.893Z,5.90
2022-12-09T06:43:45.444Z,5.90
2022-12-09T06:46:18.073Z,5.90
2022-12-09T06:48:53.039Z,5.90
2022-12-09T06:52:12.361Z,5.90
2022-12-09T06:54:55.686Z,6.00
2022-12-09T06:57:27.447Z,6.00
2022-12-09T06:59:55.051Z,6.00
2022-12-09T07:02:23.802Z,6.00
2022-12-09T07:04:55.596Z,6.00
2022-12-09T07:07:23.334Z,6.00
2022-12-09T07:09:50.556Z,6.00
2022-12-09T07:12:22.439Z,6.00
2022-12-09T07:14:49.780Z,6.00
2022-12-09T07:17:23.998Z,6.00
2022-12-09T07:19:53.564Z,6.00
2022-12-09T07:22:20.963Z,5.90
2022-12-09T07:25:02.806Z,6.00
2022-12-09T07:27:30.973Z,5.90
2022-12-09T07:29:58.554Z,6.00
2022-12-09T07:32:30.625Z,6.00
2022-12-09T07:35:00.406Z,6.00
2022-12-09T07:37:27.702Z,6.00
2022-12-09T07:39:56.475Z,6.00
2022-12-09T07:42:23.970Z,6.00
2022-12-09T07:44:55.225Z,6.00
2022-12-09T07:47:35.019Z,6.00
2022-12-09T07:50:06.497Z,6.00
2022-12-09T07:52:34.523Z,6.10
2022-12-09T07:55:03.984Z,6.10
2022-12-09T07:57:35.327Z,6.10
2022-12-09T08:00:28.182Z,6.10
2022-12-09T08:02:57.844Z,6.10
2022-12-09T08:05:25.622Z,6.20
2022-12-09T08:07:52.899Z,6.10
2022-12-09T08:10:24.577Z,6.20
2022-12-09T08:12:56.076Z,6.20
2022-12-09T08:19:32.262Z,6.20
2022-12-09T08:22:01.690Z,6.20
2022-12-09T08:24:41.783Z,6.20
2022-12-09T08:27:09.129Z,6.30
2022-12-09T08:29:38.050Z,6.30
2022-12-09T08:32:06.141Z,6.30
2022-12-09T08:34:33.371Z,6.30
2022-12-09T08:37:02.489Z,6.20
2022-12-09T08:39:30.397Z,6.20
2022-12-09T08:42:01.557Z,6.20
2022-12-09T08:44:29.176Z,6.10
2022-12-09T08:46:57.353Z,6.10
2022-12-09T08:49:25.145Z,6.10
2022-12-09T08:52:13.608Z,6.10
2022-12-09T08:54:48.757Z,6.10
2022-12-09T08:57:28.810Z,6.10
2022-12-09T09:00:10.757Z,6.10
2022-12-09T09:05:37.520Z,6.20
2022-12-09T09:08:05.658Z,6.30
2022-12-09T09:10:35.701Z,6.30
2022-12-09T09:13:04.306Z,6.30
2022-12-09T09:15:32.044Z,6.30
2022-12-09T09:17:59.777Z,6.40
2022-12-09T09:29:07.253Z,6.40
2022-12-09T09:31:59.220Z,6.40
2022-12-09T09:34:29.235Z,6.40
2022-12-09T09:36:57.674Z,6.40
2022-12-09T09:39:25.729Z,6.50
2022-12-09T09:42:08.768Z,6.50
2022-12-09T09:44:55.079Z,6.50
2022-12-09T09:47:39.614Z,6.50
2022-12-09T09:50:31.391Z,6.50
2022-12-09T09:53:02.529Z,6.40
2022-12-09T09:55:51.823Z,6.40
2022-12-09T09:58:47.275Z,6.40
2022-12-09T10:01:18.726Z,6.40
2022-12-09T10:04:05.374Z,6.40
2022-12-09T10:06:44.605Z,6.40
2022-12-09T10:09:23.727Z,6.40
2022-12-09T10:12:06.365Z,6.40
2022-12-09T10:14:59.968Z,6.50
2022-12-09T10:17:29.240Z,6.40
2022-12-09T10:20:21.407Z,6.50
2022-12-09T10:22:57.406Z,6.50
2022-12-09T10:25:28.399Z,6.50
2022-12-09T10:28:05.925Z,6.50
2022-12-09T10:30:39.876Z,6.50
2022-12-09T10:33:13.660Z,6.50
2022-12-09T10:35:41.695Z,6.50
2022-12-09T10:38:15.003Z,6.50
2022-12-09T10:40:52.355Z,6.50
2022-12-09T10:43:37.491Z,6.60
2022-12-09T10:46:24.369Z,6.60
2022-12-09T10:48:59.025Z,6.60
2022-12-09T10:51:50.991Z,6.60
2022-12-09T10:54:40.112Z,6.50
2022-12-09T10:57:22.745Z,6.50
2022-12-09T11:00:09.429Z,6.50
2022-12-09T11:02:36.828Z,6.60
2022-12-09T11:05:18.502Z,6.70
2022-12-09T11:07:51.433Z,6.70
2022-12-09T11:10:25.377Z,6.80
2022-12-09T11:13:20.194Z,6.80
2022-12-09T11:15:54.418Z,6.90
2022-12-09T11:18:31.209Z,6.90
2022-12-09T11:21:27.445Z,6.90
2022-12-09T11:24:02.596Z,6.80
2022-12-09T11:26:36.633Z,6.80
2022-12-09T11:29:24.124Z,6.70
2022-12-09T11:31:51.496Z,6.70
2022-12-09T11:34:24.339Z,6.60
2022-12-09T11:36:58.501Z,6.60
2022-12-09T11:39:35.456Z,6.60
2022-12-09T11:42:19.008Z,6.60
2022-12-09T11:45:00.406Z,6.60
2022-12-09T11:48:21.257Z,6.60
2022-12-09T11:50:33.322Z,6.70
2022-12-09T11:53:12.797Z,6.70
2022-12-09T11:55:49.696Z,6.70
2022-12-09T11:58:28.760Z,6.70
2022-12-09T12:01:04.333Z,6.70
2022-12-09T12:03:44.981Z,6.70
2022-12-09T12:06:23.338Z,6.60
2022-12-09T12:08:56.466Z,6.70
2022-12-09T12:11:38.585Z,6.60
2022-12-09T12:14:17.358Z,6.70
2022-12-09T12:17:18.427Z,6.60
2022-12-09T12:19:52.022Z,6.60
2022-12-09T12:22:34.481Z,6.60
2022-12-09T12:25:23.721Z,6.70
2022-12-09T12:27:56.447Z,6.70
2022-12-09T12:30:41.350Z,6.80
2022-12-09T12:36:42.691Z,6.80
2022-12-09T12:39:50.816Z,6.80
2022-12-09T12:43:06.451Z,6.80
2022-12-09T12:46:04.226Z,6.70
2022-12-09T12:49:14.939Z,6.70
2022-12-09T12:51:54.250Z,6.70
2022-12-09T12:54:45.993Z,6.60
2022-12-09T12:57:29.901Z,6.60
2022-12-09T13:00:20.863Z,6.60
2022-12-09T13:03:14.948Z,6.60
2022-12-09T13:05:45.397Z,6.60
2022-12-09T13:08:24.631Z,6.60
2022-12-09T13:11:01.158Z,6.70
2022-12-09T13:13:44.768Z,6.60
2022-12-09T13:16:29.444Z,6.70
2022-12-09T13:19:22.228Z,6.70
2022-12-09T13:21:49.873Z,6.60
2022-12-09T13:24:31.041Z,6.70
2022-12-09T13:27:06.255Z,6.60
2022-12-09T13:29:47.490Z,6.70
2022-12-09T13:32:28.232Z,6.70
2022-12-09T13:35:19.248Z,6.70
2022-12-09T13:37:46.819Z,6.80
2022-12-09T13:40:36.858Z,6.80
2022-12-09T13:43:03.857Z,6.90
2022-12-09T13:45:34.014Z,7.00
2022-12-09T13:48:16.957Z,7.00
2022-12-09T13:50:57.509Z,7.00
2022-12-09T13:53:33.801Z,7.00
2022-12-09T13:56:04.054Z,6.90
2022-12-09T13:58:43.242Z,6.80
2022-12-09T14:01:18.221Z,6.80
2022-12-09T14:03:58.174Z,6.80
2022-12-09T14:06:47.054Z,6.70
2022-12-09T14:09:29.401Z,6.70
2022-12-09T14:12:00.748Z,6.70
2022-12-09T14:14:27.974Z,6.70
2022-12-09T14:17:00.442Z,6.70
2022-12-09T14:19:52.506Z,6.70
2022-12-09T14:22:19.869Z,6.70
2022-12-09T14:24:50.737Z,6.70
2022-12-09T14:27:31.203Z,6.70
2022-12-09T14:30:25.715Z,6.70
2022-12-09T14:32:53.667Z,6.70
2022-12-09T14:35:41.533Z,6.70
2022-12-09T14:38:27.308Z,6.70
2022-12-09T14:41:03.155Z,6.70
2022-12-09T14:43:55.316Z,6.70
2022-12-09T14:46:35.631Z,6.80
2022-12-09T14:49:04.679Z,6.80
2022-12-09T14:51:37.450Z,6.80
2022-12-09T14:54:12.292Z,6.80
2022-12-09T14:56:39.489Z,6.80
2022-12-09T14:59:09.866Z,6.80
2022-12-09T15:01:48.904Z,6.80
2022-12-09T15:04:37.106Z,6.80
2022-12-09T15:07:10.325Z,6.80
2022-12-09T15:09:46.700Z,6.90
2022-12-09T15:12:13.804Z,6.80
2022-12-09T15:14:44.296Z,6.80
2022-12-09T15:17:24.829Z,6.90
2022-12-09T15:20:00.076Z,6.80
2022-12-09T15:22:38.967Z,6.90
2022-12-09T15:25:06.069Z,6.80
2022-12-09T15:27:33.235Z,6.80
2022-12-09T15:30:20.662Z,6.90
2022-12-09T15:32:47.707Z,6.80
2022-12-09T15:35:23.786Z,6.80
2022-12-09T15:37:55.322Z,6.80
2022-12-09T15:40:23.199Z,6.80
2022-12-09T15:42:53.750Z,6.80
2022-12-09T15:45:24.851Z,6.80
2022-12-09T15:47:54.603Z,6.70
2022-12-09T15:50:47.113Z,6.70
2022-12-09T15:53:32.012Z,6.70
2022-12-09T15:56:11.967Z,6.70
2022-12-09T15:58:45.486Z,6.70
2022-12-09T16:01:24.325Z,6.70
2022-12-09T16:03:55.763Z,6.70
2022-12-09T16:06:37.641Z,6.70
2022-12-09T16:09:14.645Z,6.70
2022-12-09T16:11:49.430Z,6.70
2022-12-09T16:14:18.782Z,6.70
2022-12-09T16:17:02.654Z,6.70
2022-12-09T16:19:46.997Z,6.70
2022-12-09T16:22:33.299Z,6.70
2022-12-09T16:25:19.908Z,6.70
2022-12-09T16:27:50.537Z,6.70
2022-12-09T16:30:21.352Z,6.70
2022-12-09T16:32:52.051Z,6.70
2022-12-09T16:35:40.710Z,6.70
2022-12-09T16:38:10.656Z,6.70
2022-12-09T16:40:47.023Z,6.70
2022-12-09T16:43:24.990Z,6.70
2022-12-09T16:45:57.816Z,6.70
2022-12-09T16:48:26.992Z,6.70
2022-12-09T16:50:56.454Z,6.70
2022-12-09T16:53:38.033Z,6.80
2022-12-09T16:56:05.567Z,6.80
2022-12-09T17:02:10.609Z,6.80
2022-12-09T17:05:00.694Z,6.80
2022-12-09T17:07:28.224Z,6.80
2022-12-09T17:09:55.224Z,6.80
2022-12-09T17:12:22.319Z,6.80
2022-12-09T17:14:50.041Z,6.80
2022-12-09T17:17:17.366Z,6.80
2022-12-09T17:19:44.305Z,6.80
2022-12-09T17:22:37.201Z,6.80
2022-12-09T17:25:07.487Z,6.80
2022-12-09T17:27:34.930Z,6.80
2022-12-09T17:30:02.248Z,6.90
2022-12-09T17:32:29.154Z,6.90
2022-12-09T17:34:56.358Z,6.90
2022-12-09T17:37:23.280Z,6.90
2022-12-09T17:39:55.606Z,6.90
2022-12-09T17:42:27.094Z,6.90
2022-12-09T17:44:53.983Z,6.90
2022-12-09T17:47:20.896Z,6.80
2022-12-09T17:49:47.920Z,6.80
2022-12-09T17:52:16.424Z,6.80
2022-12-09T17:54:43.601Z,6.80
2022-12-09T17:57:12.654Z,6.80
2022-12-09T17:59:41.279Z,6.80
2022-12-09T18:02:11.352Z,6.80
2022-12-09T18:04:39.811Z,6.80
2022-12-09T18:07:08.416Z,6.80
2022-12-09T18:09:36.728Z,6.80
2022-12-09T18:12:24.352Z,6.80
2022-12-09T18:14:54.033Z,6.80
2022-12-09T18:17:26.113Z,6.70
2022-12-09T18:19:54.477Z,6.70
2022-12-09T18:22:22.115Z,6.70
2022-12-09T18:24:51.398Z,6.60
2022-12-09T18:27:18.613Z,6.70
2022-12-09T18:29:48.638Z,6.70
2022-12-09T18:32:17.403Z,6.60
2022-12-09T18:34:46.474Z,6.60
2022-12-09T18:40:08.330Z,6.60
2022-12-09T18:42:42.294Z,6.60
2022-12-09T18:45:16.852Z,6.60
2022-12-09T18:48:03.029Z,6.60
2022-12-09T18:50:37.305Z,6.60
2022-12-09T18:56:00.846Z,6.60
2022-12-09T18:58:57.557Z,6.60
2022-12-09T19:01:31.534Z,6.50
2022-12-09T19:04:04.685Z,6.60
2022-12-09T19:06:44.194Z,6.50
2022-12-09T19:13:05.025Z,6.60
2022-12-09T19:15:33.978Z,6.60
2022-12-09T19:18:03.160Z,6.50
2022-12-09T19:20:32.196Z,6.50
2022-12-09T19:23:17.868Z,6.50
2022-12-09T19:25:45.182Z,6.50
2022-12-09T19:28:17.571Z,6.50
2022-12-09T19:30:49.776Z,6.50
2022-12-09T19:33:17.283Z,6.60
2022-12-09T19:35:44.519Z,6.50
2022-12-09T19:38:11.586Z,6.50
2022-12-09T19:40:38.746Z,6.50
2022-12-09T19:43:05.890Z,6.50
2022-12-09T19:45:33.806Z,6.50
2022-12-09T19:48:00.853Z,6.60
2022-12-09T19:50:28.495Z,6.60
2022-12-09T19:52:55.608Z,6.60
2022-12-09T19:55:28.813Z,6.60
2022-12-09T19:57:59.163Z,6.50
2022-12-09T20:00:27.506Z,6.60
2022-12-09T20:02:55.684Z,6.60
2022-12-09T20:05:22.811Z,6.60
2022-12-09T20:07:50.643Z,6.60
2022-12-09T20:10:18.244Z,6.60
2022-12-09T20:12:45.336Z,6.70
2022-12-09T20:15:18.895Z,6.70
2022-12-09T20:17:46.985Z,6.70
2022-12-09T20:20:13.904Z,6.70
2022-12-09T20:22:40.975Z,6.70
2022-12-09T20:25:08.299Z,6.70
2022-12-09T20:27:35.361Z,6.70
2022-12-09T20:30:09.791Z,6.70
2022-12-09T20:32:39.467Z,6.70
2022-12-09T20:35:08.778Z,6.70
2022-12-09T20:37:36.974Z,6.60
2022-12-09T20:40:14.818Z,6.60
2022-12-09T20:42:50.741Z,6.60
2022-12-09T20:45:17.693Z,6.70
2022-12-09T20:47:55.191Z,6.60
2022-12-09T20:50:38.208Z,6.60
2022-12-09T20:53:05.753Z,6.60
2022-12-09T20:55:39.583Z,6.60
2022-12-09T20:58:15.606Z,6.70
2022-12-09T21:00:45.821Z,6.70
2022-12-09T21:03:12.928Z,6.70
2022-12-09T21:05:44.181Z,6.60
2022-12-09T21:08:11.546Z,6.60
2022-12-09T21:10:43.733Z,6.60
2022-12-09T21:13:14.712Z,6.60
2022-12-09T21:15:44.145Z,6.60
2022-12-09T21:18:14.612Z,6.60
2022-12-09T21:20:44.464Z,6.60
2022-12-09T21:23:34.093Z,6.60
2022-12-09T21:26:20.758Z,6.60
2022-12-09T21:28:53.680Z,6.60
2022-12-09T21:31:23.591Z,6.60
2022-12-09T21:33:52.996Z,6.60
2022-12-09T21:36:22.652Z,6.60
2022-12-09T21:38:51.614Z,6.60
2022-12-09T21:41:22.587Z,6.60
2022-12-09T21:43:50.707Z,6.60
2022-12-09T21:46:21.043Z,6.60
2022-12-09T21:48:58.575Z,6.60
2022-12-09T21:51:31.203Z,6.60
2022-12-09T21:53:58.834Z,6.60
2022-12-09T21:56:30.751Z,6.60
2022-12-09T21:59:01.138Z,6.60
2022-12-09T22:01:38.054Z,6.60
2022-12-09T22:04:18.221Z,6.60
2022-12-09T22:06:47.868Z,6.60
2022-12-09T22:09:16.212Z,6.60
2022-12-09T22:11:43.306Z,6.60
2022-12-09T22:14:11.188Z,6.60
2022-12-09T22:16:42.357Z,6.60
2022-12-09T22:19:26.009Z,6.60
2022-12-09T22:21:53.123Z,6.60
2022-12-09T22:24:21.467Z,6.60
2022-12-09T22:26:48.483Z,6.60
2022-12-09T22:29:17.171Z,6.60
2022-12-09T22:31:48.138Z,6.60
2022-12-09T22:34:20.199Z,6.60
2022-12-09T22:36:49.332Z,6.60
2022-12-09T22:39:19.234Z,6.50
2022-12-09T22:41:46.748Z,6.50
2022-12-09T22:44:17.132Z,6.50
2022-12-09T22:46:45.052Z,6.50
2022-12-09T22:49:16.532Z,6.50
2022-12-09T22:51:44.334Z,6.50
2022-12-09T22:54:11.754Z,6.50
2022-12-09T22:56:41.221Z,6.50
2022-12-09T22:59:08.724Z,6.50
2022-12-09T23:01:37.405Z,6.50
2022-12-09T23:04:06.036Z,6.50
2022-12-09T23:06:39.134Z,6.50
2022-12-09T23:09:11.527Z,6.50
2022-12-09T23:11:38.730Z,6.50
2022-12-09T23:14:05.778Z,6.60
2022-12-09T23:16:32.764Z,6.50
2022-12-09T23:18:59.937Z,6.50
2022-12-09T23:21:32.935Z,6.50
2022-12-09T23:24:02.215Z,6.50
2022-12-09T23:26:31.179Z,6.50
2022-12-09T23:29:01.267Z,6.50
2022-12-09T23:31:37.088Z,6.60
2022-12-09T23:34:05.754Z,6.60
2022-12-09T23:36:38.401Z,6.60
2022-12-09T23:39:09.795Z,6.60
2022-12-09T23:41:40.985Z,6.60
2022-12-09T23:44:10.537Z,6.60
2022-12-09T23:46:38.092Z,6.60
2022-12-09T23:49:06.624Z,6.60
2022-12-09T23:51:35.572Z,6.60
2022-12-09T23:54:04.684Z,6.60
2022-12-09T23:56:34.888Z,6.60
2022-12-09T23:59:06.871Z,6.60
